sensor_id;sensor_type;location;lat;lon;timestamp;pressure;altitude;pressure_sealevel;temperature;humidity
42289;BME280;30230;47.520;19.016;2023-09-18T00:01:38;99358.28;;;18.45;100.00
42289;BME280;30230;47.520;19.016;2023-09-18T00:03:39;99362.88;;;18.45;100.00
42289;BME280;30230;47.520;19.016;2023-09-18T00:05:40;99364.94;;;18.55;100.00
42289;BME280;30230;47.520;19.016;2023-09-18T00:07:40;99366.03;;;18.54;100.00
42289;BME280;30230;47.520;19.016;2023-09-18T00:09:40;99355.34;;;18.52;100.00
42289;BME280;30230;47.520;19.016;2023-09-18T00:11:40;99357.25;;;18.52;100.00
42289;BME280;30230;47.520;19.016;2023-09-18T00:13:41;99354.19;;;18.48;100.00
42289;BME280;30230;47.520;19.016;2023-09-18T00:15:41;99347.31;;;18.45;100.00
42289;BME280;30230;47.520;19.016;2023-09-18T00:17:42;99348.91;;;18.41;100.00
42289;BME280;30230;47.520;19.016;2023-09-18T00:19:43;99347.56;;;18.44;100.00
42289;BME280;30230;47.520;19.016;2023-09-18T00:21:43;99344.00;;;18.43;100.00
42289;BME280;30230;47.520;19.016;2023-09-18T00:23:43;99344.53;;;18.40;100.00
42289;BME280;30230;47.520;19.016;2023-09-18T00:25:44;99350.16;;;18.34;100.00
42289;BME280;30230;47.520;19.016;2023-09-18T00:27:44;99344.94;;;18.32;100.00
42289;BME280;30230;47.520;19.016;2023-09-18T00:29:44;99348.78;;;18.31;100.00
42289;BME280;30230;47.520;19.016;2023-09-18T00:31:45;99340.22;;;18.28;100.00
42289;BME280;30230;47.520;19.016;2023-09-18T00:33:45;99344.06;;;18.27;100.00
42289;BME280;30230;47.520;19.016;2023-09-18T00:35:46;99344.53;;;18.23;100.00
42289;BME280;30230;47.520;19.016;2023-09-18T00:37:46;99348.03;;;18.19;100.00
42289;BME280;30230;47.520;19.016;2023-09-18T00:39:47;99341.16;;;18.16;100.00
42289;BME280;30230;47.520;19.016;2023-09-18T00:41:49;99340.00;;;18.12;100.00
42289;BME280;30230;47.520;19.016;2023-09-18T00:43:53;99344.09;;;18.10;100.00
42289;BME280;30230;47.520;19.016;2023-09-18T00:45:54;99336.63;;;18.05;100.00
42289;BME280;30230;47.520;19.016;2023-09-18T00:47:54;99336.88;;;18.04;100.00
42289;BME280;30230;47.520;19.016;2023-09-18T00:49:54;99342.34;;;18.04;100.00
42289;BME280;30230;47.520;19.016;2023-09-18T00:51:55;99348.06;;;18.02;100.00
42289;BME280;30230;47.520;19.016;2023-09-18T00:53:56;99342.03;;;18.00;100.00
42289;BME280;30230;47.520;19.016;2023-09-18T00:55:56;99345.84;;;17.99;100.00
42289;BME280;30230;47.520;19.016;2023-09-18T00:57:57;99342.25;;;17.99;100.00
42289;BME280;30230;47.520;19.016;2023-09-18T00:59:58;99346.31;;;17.96;100.00
42289;BME280;30230;47.520;19.016;2023-09-18T01:01:58;99349.06;;;17.96;100.00
42289;BME280;30230;47.520;19.016;2023-09-18T01:03:59;99341.19;;;18.00;100.00
42289;BME280;30230;47.520;19.016;2023-09-18T01:05:59;99338.69;;;17.98;100.00
42289;BME280;30230;47.520;19.016;2023-09-18T01:07:59;99343.59;;;17.96;100.00
42289;BME280;30230;47.520;19.016;2023-09-18T01:10:00;99344.59;;;17.90;100.00
42289;BME280;30230;47.520;19.016;2023-09-18T01:12:05;99344.34;;;17.91;100.00
42289;BME280;30230;47.520;19.016;2023-09-18T01:14:31;99349.56;;;17.93;100.00
42289;BME280;30230;47.520;19.016;2023-09-18T01:16:34;99342.69;;;17.90;100.00
42289;BME280;30230;47.520;19.016;2023-09-18T01:18:37;99337.97;;;17.86;100.00
42289;BME280;30230;47.520;19.016;2023-09-18T01:20:38;99337.97;;;17.86;100.00
42289;BME280;30230;47.520;19.016;2023-09-18T01:22:38;99339.06;;;17.85;100.00
42289;BME280;30230;47.520;19.016;2023-09-18T01:24:39;99334.91;;;17.82;100.00
42289;BME280;30230;47.520;19.016;2023-09-18T01:26:39;99335.72;;;17.83;100.00
42289;BME280;30230;47.520;19.016;2023-09-18T01:28:39;99333.50;;;17.80;100.00
42289;BME280;30230;47.520;19.016;2023-09-18T01:30:40;99334.34;;;17.80;100.00
42289;BME280;30230;47.520;19.016;2023-09-18T01:32:40;99331.03;;;17.78;100.00
42289;BME280;30230;47.520;19.016;2023-09-18T01:34:48;99329.63;;;17.76;100.00
42289;BME280;30230;47.520;19.016;2023-09-18T01:36:49;99339.97;;;17.74;100.00
42289;BME280;30230;47.520;19.016;2023-09-18T01:38:49;99340.16;;;17.72;100.00
42289;BME280;30230;47.520;19.016;2023-09-18T01:40:51;99333.56;;;17.68;100.00
42289;BME280;30230;47.520;19.016;2023-09-18T01:42:53;99343.66;;;17.67;100.00
42289;BME280;30230;47.520;19.016;2023-09-18T01:44:54;99343.91;;;17.66;100.00
42289;BME280;30230;47.520;19.016;2023-09-18T01:46:56;99337.63;;;17.65;100.00
42289;BME280;30230;47.520;19.016;2023-09-18T01:48:56;99325.22;;;17.58;100.00
42289;BME280;30230;47.520;19.016;2023-09-18T01:50:57;99329.59;;;17.59;100.00
42289;BME280;30230;47.520;19.016;2023-09-18T01:52:58;99330.66;;;17.58;100.00
42289;BME280;30230;47.520;19.016;2023-09-18T01:54:58;99336.06;;;17.53;100.00
42289;BME280;30230;47.520;19.016;2023-09-18T01:56:58;99330.81;;;17.51;100.00
42289;BME280;30230;47.520;19.016;2023-09-18T01:58:59;99336.06;;;17.53;100.00
42289;BME280;30230;47.520;19.016;2023-09-18T02:01:02;99332.16;;;17.49;100.00
42289;BME280;30230;47.520;19.016;2023-09-18T02:03:03;99330.50;;;17.48;100.00
42289;BME280;30230;47.520;19.016;2023-09-18T02:05:04;99338.91;;;17.46;100.00
42289;BME280;30230;47.520;19.016;2023-09-18T02:07:05;99335.34;;;17.45;100.00
42289;BME280;30230;47.520;19.016;2023-09-18T02:09:05;99327.16;;;17.45;100.00
42289;BME280;30230;47.520;19.016;2023-09-18T02:11:09;99331.81;;;17.45;100.00
42289;BME280;30230;47.520;19.016;2023-09-18T02:13:09;99329.59;;;17.42;100.00
42289;BME280;30230;47.520;19.016;2023-09-18T02:15:10;99335.28;;;17.40;100.00
42289;BME280;30230;47.520;19.016;2023-09-18T02:17:11;99335.28;;;17.40;100.00
42289;BME280;30230;47.520;19.016;2023-09-18T02:19:12;99345.88;;;17.37;100.00
42289;BME280;30230;47.520;19.016;2023-09-18T02:21:20;99332.13;;;17.32;100.00
42289;BME280;30230;47.520;19.016;2023-09-18T02:23:20;99339.47;;;17.31;100.00
42289;BME280;30230;47.520;19.016;2023-09-18T02:25:20;99335.09;;;17.30;100.00
42289;BME280;30230;47.520;19.016;2023-09-18T02:27:21;99337.59;;;17.32;100.00
42289;BME280;30230;47.520;19.016;2023-09-18T02:29:21;99337.81;;;17.30;100.00
42289;BME280;30230;47.520;19.016;2023-09-18T02:31:22;99341.88;;;17.28;100.00
42289;BME280;30230;47.520;19.016;2023-09-18T02:33:23;99338.56;;;17.26;100.00
42289;BME280;30230;47.520;19.016;2023-09-18T02:35:23;99337.72;;;17.25;100.00
42289;BME280;30230;47.520;19.016;2023-09-18T02:37:23;99340.47;;;17.25;100.00
42289;BME280;30230;47.520;19.016;2023-09-18T02:39:24;99347.00;;;17.24;100.00
42289;BME280;30230;47.520;19.016;2023-09-18T02:41:24;99345.59;;;17.22;100.00
42289;BME280;30230;47.520;19.016;2023-09-18T02:43:24;99341.09;;;17.15;100.00
42289;BME280;30230;47.520;19.016;2023-09-18T02:45:25;99341.34;;;17.14;100.00
42289;BME280;30230;47.520;19.016;2023-09-18T02:47:25;99340.19;;;17.10;100.00
42289;BME280;30230;47.520;19.016;2023-09-18T02:49:25;99344.59;;;17.11;100.00
42289;BME280;30230;47.520;19.016;2023-09-18T02:51:26;99351.59;;;17.07;100.00
42289;BME280;30230;47.520;19.016;2023-09-18T02:53:26;99342.59;;;17.06;100.00
42289;BME280;30230;47.520;19.016;2023-09-18T02:55:27;99349.09;;;17.05;100.00
42289;BME280;30230;47.520;19.016;2023-09-18T02:57:28;99349.84;;;17.01;100.00
42289;BME280;30230;47.520;19.016;2023-09-18T02:59:28;99342.13;;;16.98;100.00
42289;BME280;30230;47.520;19.016;2023-09-18T03:01:28;99350.31;;;16.98;100.00
42289;BME280;30230;47.520;19.016;2023-09-18T03:03:28;99340.50;;;16.97;100.00
42289;BME280;30230;47.520;19.016;2023-09-18T03:05:31;99344.41;;;17.01;100.00
42289;BME280;30230;47.520;19.016;2023-09-18T03:07:31;99342.97;;;16.98;100.00
42289;BME280;30230;47.520;19.016;2023-09-18T03:09:31;99341.56;;;16.96;100.00
42289;BME280;30230;47.520;19.016;2023-09-18T03:11:31;99339.88;;;16.95;100.00
42289;BME280;30230;47.520;19.016;2023-09-18T03:13:32;99338.22;;;16.93;100.00
42289;BME280;30230;47.520;19.016;2023-09-18T03:15:32;99336.34;;;16.94;100.00
42289;BME280;30230;47.520;19.016;2023-09-18T03:17:32;99339.06;;;16.94;100.00
42289;BME280;30230;47.520;19.016;2023-09-18T03:19:33;99336.22;;;16.89;100.00
42289;BME280;30230;47.520;19.016;2023-09-18T03:21:33;99334.31;;;16.89;100.00
42289;BME280;30230;47.520;19.016;2023-09-18T03:23:35;99335.16;;;16.90;100.00
42289;BME280;30230;47.520;19.016;2023-09-18T03:25:36;99326.66;;;16.86;100.00
42289;BME280;30230;47.520;19.016;2023-09-18T03:27:40;99332.00;;;16.81;100.00
42289;BME280;30230;47.520;19.016;2023-09-18T03:29:40;99326.44;;;16.76;100.00
42289;BME280;30230;47.520;19.016;2023-09-18T03:31:40;99328.34;;;16.76;100.00
42289;BME280;30230;47.520;19.016;2023-09-18T03:33:40;99323.13;;;16.74;100.00
42289;BME280;30230;47.520;19.016;2023-09-18T03:35:45;99328.34;;;16.76;100.00
42289;BME280;30230;47.520;19.016;2023-09-18T03:37:47;99317.44;;;16.76;100.00
42289;BME280;30230;47.520;19.016;2023-09-18T03:39:47;99323.13;;;16.74;100.00
42289;BME280;30230;47.520;19.016;2023-09-18T03:41:47;99317.09;;;16.72;100.00
42289;BME280;30230;47.520;19.016;2023-09-18T03:43:48;99325.50;;;16.71;100.00
42289;BME280;30230;47.520;19.016;2023-09-18T03:45:49;99322.97;;;16.69;100.00
42289;BME280;30230;47.520;19.016;2023-09-18T03:47:49;99331.16;;;16.69;100.00
42289;BME280;30230;47.520;19.016;2023-09-18T03:49:50;99319.94;;;16.65;100.00
42289;BME280;30230;47.520;19.016;2023-09-18T03:51:50;99322.66;;;16.65;100.00
42289;BME280;30230;47.520;19.016;2023-09-18T03:53:51;99327.50;;;16.63;100.00
42289;BME280;30230;47.520;19.016;2023-09-18T03:55:51;99323.47;;;16.66;100.00
42289;BME280;30230;47.520;19.016;2023-09-18T03:57:52;99324.88;;;16.68;100.00
42289;BME280;30230;47.520;19.016;2023-09-18T03:59:52;99319.56;;;16.74;100.00
42289;BME280;30230;47.520;19.016;2023-09-18T04:01:52;99318.72;;;16.73;100.00
42289;BME280;30230;47.520;19.016;2023-09-18T04:03:53;99315.44;;;16.71;100.00
42289;BME280;30230;47.520;19.016;2023-09-18T04:05:53;99316.13;;;16.66;100.00
42289;BME280;30230;47.520;19.016;2023-09-18T04:07:53;99317.41;;;16.64;100.00
42289;BME280;30230;47.520;19.016;2023-09-18T04:09:53;99311.38;;;16.62;100.00
42289;BME280;30230;47.520;19.016;2023-09-18T04:11:54;99315.19;;;16.61;100.00
42289;BME280;30230;47.520;19.016;2023-09-18T04:13:55;99308.91;;;16.60;100.00
42289;BME280;30230;47.520;19.016;2023-09-18T04:15:55;99318.66;;;16.56;100.00
42289;BME280;30230;47.520;19.016;2023-09-18T04:17:56;99309.13;;;16.59;100.00
42289;BME280;30230;47.520;19.016;2023-09-18T04:19:57;99304.75;;;16.58;100.00
42289;BME280;30230;47.520;19.016;2023-09-18T04:21:57;99306.66;;;16.57;100.00
42289;BME280;30230;47.520;19.016;2023-09-18T04:23:57;99306.91;;;16.56;100.00
42289;BME280;30230;47.520;19.016;2023-09-18T04:25:58;99293.63;;;16.59;100.00
42289;BME280;30230;47.520;19.016;2023-09-18T04:27:58;99299.66;;;16.61;100.00
42289;BME280;30230;47.520;19.016;2023-09-18T04:29:59;99300.75;;;16.60;100.00
42289;BME280;30230;47.520;19.016;2023-09-18T04:32:00;99305.84;;;16.57;100.00
42289;BME280;30230;47.520;19.016;2023-09-18T04:34:01;99301.47;;;16.56;100.00
42289;BME280;30230;47.520;19.016;2023-09-18T04:36:02;99300.63;;;16.55;100.00
42289;BME280;30230;47.520;19.016;2023-09-18T04:38:02;99304.44;;;16.54;100.00
42289;BME280;30230;47.520;19.016;2023-09-18T04:40:03;99308.56;;;16.57;100.00
42289;BME280;30230;47.520;19.016;2023-09-18T04:42:04;99306.66;;;16.57;100.00
42289;BME280;30230;47.520;19.016;2023-09-18T04:44:05;99310.81;;;16.60;100.00
42289;BME280;30230;47.520;19.016;2023-09-18T04:46:05;99312.22;;;16.62;100.00
42289;BME280;30230;47.520;19.016;2023-09-18T04:48:05;99311.03;;;16.58;100.00
42289;BME280;30230;47.520;19.016;2023-09-18T04:50:06;99309.75;;;16.61;100.00
42289;BME280;30230;47.520;19.016;2023-09-18T04:52:06;99311.38;;;16.62;100.00
42289;BME280;30230;47.520;19.016;2023-09-18T04:54:06;99307.59;;;16.63;100.00
42289;BME280;30230;47.520;19.016;2023-09-18T04:56:07;99302.75;;;16.65;100.00
42289;BME280;30230;47.520;19.016;2023-09-18T04:58:07;99300.59;;;16.67;100.00
42289;BME280;30230;47.520;19.016;2023-09-18T05:00:08;99304.38;;;16.66;100.00
42289;BME280;30230;47.520;19.016;2023-09-18T05:02:09;99293.84;;;16.70;100.00
42289;BME280;30230;47.520;19.016;2023-09-18T05:04:11;99300.25;;;16.75;100.00
42289;BME280;30230;47.520;19.016;2023-09-18T05:06:11;99298.09;;;16.77;100.00
42289;BME280;30230;47.520;19.016;2023-09-18T05:08:11;99298.91;;;16.78;100.00
42289;BME280;30230;47.520;19.016;2023-09-18T05:10:12;99302.22;;;16.80;100.00
42289;BME280;30230;47.520;19.016;2023-09-18T05:12:12;99303.16;;;16.85;100.00
42289;BME280;30230;47.520;19.016;2023-09-18T05:14:15;99295.56;;;16.87;100.00
42289;BME280;30230;47.520;19.016;2023-09-18T05:16:16;99302.66;;;16.88;100.00
42289;BME280;30230;47.520;19.016;2023-09-18T05:18:17;99303.84;;;16.92;100.00
42289;BME280;30230;47.520;19.016;2023-09-18T05:20:18;99301.22;;;16.98;100.00
42289;BME280;30230;47.520;19.016;2023-09-18T05:22:18;99296.19;;;17.06;100.00
42289;BME280;30230;47.520;19.016;2023-09-18T05:24:18;99300.31;;;17.09;100.00
42289;BME280;30230;47.520;19.016;2023-09-18T05:26:26;99304.78;;;17.15;100.00
42289;BME280;30230;47.520;19.016;2023-09-18T05:28:29;99304.50;;;17.28;100.00
42289;BME280;30230;47.520;19.016;2023-09-18T05:30:29;99304.22;;;17.30;100.00
42289;BME280;30230;47.520;19.016;2023-09-18T05:32:34;99308.41;;;17.32;100.00
42289;BME280;30230;47.520;19.016;2023-09-18T05:34:34;99303.97;;;17.31;100.00
42289;BME280;30230;47.520;19.016;2023-09-18T05:36:34;99300.19;;;17.32;100.00
42289;BME280;30230;47.520;19.016;2023-09-18T05:38:35;99296.97;;;17.35;100.00
42289;BME280;30230;47.520;19.016;2023-09-18T05:40:35;99292.56;;;17.51;100.00
42289;BME280;30230;47.520;19.016;2023-09-18T05:42:35;99297.56;;;17.54;100.00
42289;BME280;30230;47.520;19.016;2023-09-18T05:44:36;99294.56;;;17.56;100.00
42289;BME280;30230;47.520;19.016;2023-09-18T05:46:39;99287.88;;;17.63;100.00
42289;BME280;30230;47.520;19.016;2023-09-18T05:48:40;99287.53;;;17.60;100.00
42289;BME280;30230;47.520;19.016;2023-09-18T05:50:40;99292.75;;;17.61;100.00
42289;BME280;30230;47.520;19.016;2023-09-18T05:52:50;99280.72;;;17.62;100.00
42289;BME280;30230;47.520;19.016;2023-09-18T05:54:51;99276.94;;;17.63;100.00
42289;BME280;30230;47.520;19.016;2023-09-18T05:56:52;99278.69;;;17.69;100.00
42289;BME280;30230;47.520;19.016;2023-09-18T05:58:52;99272.72;;;17.73;100.00
42289;BME280;30230;47.520;19.016;2023-09-18T06:00:52;99284.34;;;17.80;100.00
42289;BME280;30230;47.520;19.016;2023-09-18T06:02:53;99284.59;;;17.78;100.00
42289;BME280;30230;47.520;19.016;2023-09-18T06:04:54;99283.25;;;17.81;100.00
42289;BME280;30230;47.520;19.016;2023-09-18T06:06:55;99281.06;;;17.83;100.00
42289;BME280;30230;47.520;19.016;2023-09-18T06:08:56;99282.00;;;17.88;100.00
42289;BME280;30230;47.520;19.016;2023-09-18T06:10:57;99285.31;;;17.90;100.00
42289;BME280;30230;47.520;19.016;2023-09-18T06:12:57;99277.38;;;17.89;100.00
42289;BME280;30230;47.520;19.016;2023-09-18T06:14:58;99284.78;;;17.93;100.00
42289;BME280;30230;47.520;19.016;2023-09-18T06:16:58;99275.53;;;17.94;100.00
42289;BME280;30230;47.520;19.016;2023-09-18T06:18:59;99281.56;;;17.96;100.00
42289;BME280;30230;47.520;19.016;2023-09-18T06:21:00;99279.16;;;18.00;100.00
42289;BME280;30230;47.520;19.016;2023-09-18T06:23:00;99281.63;;;18.02;100.00
42289;BME280;30230;47.520;19.016;2023-09-18T06:25:00;99280.56;;;18.03;100.00
42289;BME280;30230;47.520;19.016;2023-09-18T06:27:01;99278.72;;;18.08;100.00
42289;BME280;30230;47.520;19.016;2023-09-18T06:29:01;99281.78;;;18.12;100.00
42289;BME280;30230;47.520;19.016;2023-09-18T06:31:02;99275.28;;;18.18;100.00
42289;BME280;30230;47.520;19.016;2023-09-18T06:33:02;99277.81;;;18.19;100.00
42289;BME280;30230;47.520;19.016;2023-09-18T06:35:04;99275.16;;;18.30;100.00
42289;BME280;30230;47.520;19.016;2023-09-18T06:37:04;99274.41;;;18.34;100.00
42289;BME280;30230;47.520;19.016;2023-09-18T06:39:07;99270.09;;;18.38;100.00
42289;BME280;30230;47.520;19.016;2023-09-18T06:41:07;99272.63;;;18.45;100.00
42289;BME280;30230;47.520;19.016;2023-09-18T06:43:08;99269.31;;;18.65;100.00
42289;BME280;30230;47.520;19.016;2023-09-18T06:45:08;99270.72;;;18.89;100.00
42289;BME280;30230;47.520;19.016;2023-09-18T06:47:08;99278.16;;;18.94;100.00
42289;BME280;30230;47.520;19.016;2023-09-18T06:49:09;99274.66;;;18.98;100.00
42289;BME280;30230;47.520;19.016;2023-09-18T06:51:09;99272.47;;;19.00;99.34
42289;BME280;30230;47.520;19.016;2023-09-18T06:53:10;99273.06;;;19.03;97.54
42289;BME280;30230;47.520;19.016;2023-09-18T06:55:10;99269.13;;;18.93;99.08
42289;BME280;30230;47.520;19.016;2023-09-18T06:57:10;99263.69;;;18.98;98.56
42289;BME280;30230;47.520;19.016;2023-09-18T06:59:10;99263.09;;;18.96;99.08
42289;BME280;30230;47.520;19.016;2023-09-18T07:01:12;99263.97;;;19.02;98.19
42289;BME280;30230;47.520;19.016;2023-09-18T07:03:12;99265.84;;;18.96;98.82
42289;BME280;30230;47.520;19.016;2023-09-18T07:05:12;99266.47;;;19.04;98.87
42289;BME280;30230;47.520;19.016;2023-09-18T07:07:13;99271.13;;;19.03;99.37
42289;BME280;30230;47.520;19.016;2023-09-18T07:09:13;99263.56;;;19.15;99.75
42289;BME280;30230;47.520;19.016;2023-09-18T07:11:13;99262.09;;;19.35;98.92
42289;BME280;30230;47.520;19.016;2023-09-18T07:13:14;99268.31;;;19.57;97.33
42289;BME280;30230;47.520;19.016;2023-09-18T07:15:14;99266.81;;;19.71;95.53
42289;BME280;30230;47.520;19.016;2023-09-18T07:17:17;99265.31;;;19.91;94.62
42289;BME280;30230;47.520;19.016;2023-09-18T07:19:17;99264.84;;;20.09;93.74
42289;BME280;30230;47.520;19.016;2023-09-18T07:21:18;99266.28;;;20.22;91.50
42289;BME280;30230;47.520;19.016;2023-09-18T07:23:18;99265.78;;;20.35;90.93
42289;BME280;30230;47.520;19.016;2023-09-18T07:25:18;99261.44;;;20.44;89.57
42289;BME280;30230;47.520;19.016;2023-09-18T07:27:19;99265.91;;;20.55;89.09
42289;BME280;30230;47.520;19.016;2023-09-18T07:29:19;99266.50;;;20.63;89.71
42289;BME280;30230;47.520;19.016;2023-09-18T07:31:20;99264.84;;;20.72;89.13
42289;BME280;30230;47.520;19.016;2023-09-18T07:33:20;99264.88;;;20.77;89.00
42289;BME280;30230;47.520;19.016;2023-09-18T07:35:20;99268.19;;;20.84;89.24
42289;BME280;30230;47.520;19.016;2023-09-18T07:37:20;99269.88;;;20.95;87.94
42289;BME280;30230;47.520;19.016;2023-09-18T07:39:21;99266.84;;;21.02;87.49
42289;BME280;30230;47.520;19.016;2023-09-18T07:41:22;99267.69;;;21.07;87.81
42289;BME280;30230;47.520;19.016;2023-09-18T07:43:23;99271.56;;;21.22;87.26
42289;BME280;30230;47.520;19.016;2023-09-18T07:45:24;99269.91;;;21.26;87.37
42289;BME280;30230;47.520;19.016;2023-09-18T07:47:24;99266.34;;;21.25;86.35
42289;BME280;30230;47.520;19.016;2023-09-18T07:49:24;99257.56;;;21.33;86.84
42289;BME280;30230;47.520;19.016;2023-09-18T07:51:25;99262.81;;;21.40;86.47
42289;BME280;30230;47.520;19.016;2023-09-18T07:53:25;99261.44;;;21.53;85.08
42289;BME280;30230;47.520;19.016;2023-09-18T07:55:25;99259.50;;;21.58;83.79
42289;BME280;30230;47.520;19.016;2023-09-18T07:57:26;99258.38;;;21.59;83.22
42289;BME280;30230;47.520;19.016;2023-09-18T07:59:32;99256.22;;;21.62;83.40
42289;BME280;30230;47.520;19.016;2023-09-18T08:01:32;99263.88;;;21.70;81.96
42289;BME280;30230;47.520;19.016;2023-09-18T08:03:32;99260.31;;;21.69;83.06
42289;BME280;30230;47.520;19.016;2023-09-18T08:05:33;99259.19;;;21.70;82.03
42289;BME280;30230;47.520;19.016;2023-09-18T08:07:33;99254.28;;;21.72;83.74
42289;BME280;30230;47.520;19.016;2023-09-18T08:09:33;99246.84;;;21.63;84.16
42289;BME280;30230;47.520;19.016;2023-09-18T08:11:37;99242.72;;;21.55;84.93
42289;BME280;30230;47.520;19.016;2023-09-18T08:13:41;99248.22;;;21.60;84.81
42289;BME280;30230;47.520;19.016;2023-09-18T08:15:42;99240.25;;;21.64;85.02
42289;BME280;30230;47.520;19.016;2023-09-18T08:17:43;99235.84;;;21.73;83.05
42289;BME280;30230;47.520;19.016;2023-09-18T08:19:43;99228.69;;;21.77;83.94
42289;BME280;30230;47.520;19.016;2023-09-18T08:21:44;99228.69;;;21.82;83.79
42289;BME280;30230;47.520;19.016;2023-09-18T08:23:44;99225.38;;;21.85;82.68
42289;BME280;30230;47.520;19.016;2023-09-18T08:25:45;99229.22;;;21.84;84.07
42289;BME280;30230;47.520;19.016;2023-09-18T08:27:47;99221.50;;;21.81;84.57
42289;BME280;30230;47.520;19.016;2023-09-18T08:29:48;99220.97;;;21.89;82.46
42289;BME280;30230;47.520;19.016;2023-09-18T08:31:48;99214.94;;;21.82;82.67
42289;BME280;30230;47.520;19.016;2023-09-18T08:33:49;99217.41;;;21.78;83.57
42289;BME280;30230;47.520;19.016;2023-09-18T08:35:50;99223.19;;;21.87;84.00
42289;BME280;30230;47.520;19.016;2023-09-18T08:37:51;99215.72;;;21.98;81.92
42289;BME280;30230;47.520;19.016;2023-09-18T08:39:51;99215.41;;;22.09;82.29
42289;BME280;30230;47.520;19.016;2023-09-18T08:41:51;99214.56;;;22.19;81.87
42289;BME280;30230;47.520;19.016;2023-09-18T08:43:58;99223.88;;;22.33;82.44
42289;BME280;30230;47.520;19.016;2023-09-18T08:45:59;99210.88;;;22.49;82.06
42289;BME280;30230;47.520;19.016;2023-09-18T08:48:04;99207.50;;;22.57;81.60
42289;BME280;30230;47.520;19.016;2023-09-18T08:50:06;99213.47;;;22.75;81.43
42289;BME280;30230;47.520;19.016;2023-09-18T08:52:07;99215.56;;;22.93;79.42
42289;BME280;30230;47.520;19.016;2023-09-18T08:54:08;99216.91;;;23.01;79.92
42289;BME280;30230;47.520;19.016;2023-09-18T08:56:09;99218.78;;;23.10;79.87
42289;BME280;30230;47.520;19.016;2023-09-18T08:58:10;99219.50;;;23.21;79.29
42289;BME280;30230;47.520;19.016;2023-09-18T09:00:11;99217.53;;;23.27;78.33
42289;BME280;30230;47.520;19.016;2023-09-18T09:02:16;99217.53;;;23.27;77.44
42289;BME280;30230;47.520;19.016;2023-09-18T09:04:17;99217.44;;;23.37;77.47
42289;BME280;30230;47.520;19.016;2023-09-18T09:06:17;99221.28;;;23.36;77.82
42289;BME280;30230;47.520;19.016;2023-09-18T09:08:17;99221.38;;;23.26;76.47
42289;BME280;30230;47.520;19.016;2023-09-18T09:10:18;99225.69;;;23.42;76.52
42289;BME280;30230;47.520;19.016;2023-09-18T09:13:04;99225.13;;;23.40;76.55
42289;BME280;30230;47.520;19.016;2023-09-18T09:14:39;99225.38;;;23.44;76.87
42289;BME280;30230;47.520;19.016;2023-09-18T09:16:39;99232.72;;;23.53;77.64
42289;BME280;30230;47.520;19.016;2023-09-18T09:18:47;99221.88;;;23.62;74.80
42289;BME280;30230;47.520;19.016;2023-09-18T09:20:57;99223.00;;;23.61;76.64
42289;BME280;30230;47.520;19.016;2023-09-18T09:23:00;99227.06;;;23.74;76.21
42289;BME280;30230;47.520;19.016;2023-09-18T09:25:01;99221.38;;;23.89;75.31
42289;BME280;30230;47.520;19.016;2023-09-18T09:27:01;99221.38;;;23.89;74.19
42289;BME280;30230;47.520;19.016;2023-09-18T09:29:19;99221.38;;;23.89;75.78
42289;BME280;30230;47.520;19.016;2023-09-18T09:31:26;99216.38;;;23.91;74.17
42289;BME280;30230;47.520;19.016;2023-09-18T09:33:27;99211.94;;;23.95;73.96
42289;BME280;30230;47.520;19.016;2023-09-18T09:35:30;99216.78;;;24.03;75.40
42289;BME280;30230;47.520;19.016;2023-09-18T09:37:31;99220.84;;;24.11;73.76
42289;BME280;30230;47.520;19.016;2023-09-18T09:39:31;99220.38;;;24.28;74.19
42289;BME280;30230;47.520;19.016;2023-09-18T09:41:32;99218.34;;;24.38;72.61
42289;BME280;30230;47.520;19.016;2023-09-18T09:43:33;99218.75;;;24.51;71.95
42289;BME280;30230;47.520;19.016;2023-09-18T09:45:34;99215.78;;;24.66;71.89
42289;BME280;30230;47.520;19.016;2023-09-18T09:47:37;99212.25;;;24.79;71.23
42289;BME280;30230;47.520;19.016;2023-09-18T09:49:47;99211.88;;;24.86;70.83
42289;BME280;30230;47.520;19.016;2023-09-18T09:51:47;99211.13;;;24.99;70.18
42289;BME280;30230;47.520;19.016;2023-09-18T09:53:48;99210.53;;;25.02;70.47
42289;BME280;30230;47.520;19.016;2023-09-18T09:55:54;99201.34;;;25.07;70.94
42289;BME280;30230;47.520;19.016;2023-09-18T09:57:56;99193.53;;;25.14;71.03
42289;BME280;30230;47.520;19.016;2023-09-18T10:00:04;99184.75;;;25.26;68.43
42289;BME280;30230;47.520;19.016;2023-09-18T10:02:26;99179.78;;;25.41;69.55
42289;BME280;30230;47.520;19.016;2023-09-18T10:04:28;99188.59;;;25.43;67.56
42289;BME280;30230;47.520;19.016;2023-09-18T10:06:30;99183.25;;;25.47;68.97
42289;BME280;30230;47.520;19.016;2023-09-18T10:08:31;99175.28;;;25.45;68.59
42289;BME280;30230;47.520;19.016;2023-09-18T10:10:38;99178.78;;;25.51;67.90
42289;BME280;30230;47.520;19.016;2023-09-18T10:12:39;99184.91;;;25.48;68.77
42289;BME280;30230;47.520;19.016;2023-09-18T10:14:40;99178.69;;;25.56;67.63
42289;BME280;30230;47.520;19.016;2023-09-18T10:16:44;99169.16;;;25.62;67.78
42289;BME280;30230;47.520;19.016;2023-09-18T10:20:56;99161.47;;;25.73;66.64
42289;BME280;30230;47.520;19.016;2023-09-18T10:22:57;99167.75;;;25.79;66.76
42289;BME280;30230;47.520;19.016;2023-09-18T10:25:01;99167.56;;;25.89;66.91
42289;BME280;30230;47.520;19.016;2023-09-18T10:27:05;99154.44;;;25.94;67.61
42289;BME280;30230;47.520;19.016;2023-09-18T10:29:06;99147.38;;;26.02;66.41
42289;BME280;30230;47.520;19.016;2023-09-18T10:31:09;99144.91;;;26.14;64.84